Time;durP1;ratioP1;P1;durP2;ratioP2;P2;SDS_P1;SDS_P2;PMS_P1;PMS_P2;Temp;Humidity;BMP_temperature;BMP_pressure;BME280_temperature;BME280_humidity;BME280_pressure;Samples;Min_cycle;Max_cycle;Signal;HPM_P1;HPM_P2
2023/01/27 00:01:38;;;;;;;16.33;4.13;;;;;;;3.46;100.00;102330.88;5072611;28;20024;-82
2023/01/27 00:04:03;;;;;;;16.57;4.23;;;;;;;3.47;100.00;102332.59;5089331;28;20537;-82
2023/01/27 00:06:29;;;;;;;20.53;5.90;;;;;;;3.49;100.00;102325.25;5074722;28;20032;-82
2023/01/27 00:08:54;;;;;;;18.30;5.13;;;;;;;3.52;100.00;102322.34;5089051;28;20081;-82
2023/01/27 00:14:03;;;;;;;17.38;4.10;;;;;;;3.44;100.00;102323.94;5088798;28;20054;-82
2023/01/27 00:16:29;;;;;;;18.90;4.53;;;;;;;3.46;100.00;102325.50;5095135;28;20028;-82
2023/01/27 00:18:54;;;;;;;13.60;4.20;;;;;;;3.45;100.00;102329.16;5085658;28;20042;-82
2023/01/27 00:26:47;;;;;;;17.05;4.63;;;;;;;3.30;100.00;102330.44;5089142;28;20043;-82
2023/01/27 00:29:13;;;;;;;12.47;4.10;;;;;;;3.34;100.00;102319.34;5089645;28;20024;-82
2023/01/27 00:34:22;;;;;;;17.10;4.63;;;;;;;3.26;100.00;102324.50;5087491;28;20039;-82
2023/01/27 00:36:47;;;;;;;17.53;5.13;;;;;;;3.27;100.00;102325.34;5089211;28;20107;-82
2023/01/27 00:39:13;;;;;;;15.10;4.47;;;;;;;3.19;100.00;102324.16;5087489;28;20052;-82
2023/01/27 00:41:39;;;;;;;17.53;4.77;;;;;;;3.09;100.00;102328.56;5059754;28;20020;-82
2023/01/27 00:44:05;;;;;;;17.80;4.33;;;;;;;3.13;100.00;102330.03;5088377;28;20081;-82
2023/01/27 00:46:30;;;;;;;16.97;4.80;;;;;;;3.16;100.00;102328.94;5082771;28;20029;-83
2023/01/27 00:48:56;;;;;;;18.20;4.90;;;;;;;3.18;100.00;102332.31;5070787;28;20036;-83
2023/01/27 00:51:22;;;;;;;17.80;4.90;;;;;;;3.19;100.00;102332.19;5087979;28;20436;-82
2023/01/27 00:53:47;;;;;;;17.90;4.40;;;;;;;3.14;100.00;102331.72;5087543;28;20119;-82
2023/01/27 00:56:13;;;;;;;18.50;4.57;;;;;;;3.16;100.00;102335.13;5073788;28;20146;-82
2023/01/27 00:58:39;;;;;;;19.70;4.60;;;;;;;3.19;100.00;102339.38;5089254;28;20081;-82
2023/01/27 01:01:07;;;;;;;18.60;4.60;;;;;;;3.17;100.00;102336.00;5068077;28;20357;-82
2023/01/27 01:03:34;;;;;;;18.67;4.83;;;;;;;3.16;100.00;102337.81;5090162;28;20088;-82
2023/01/27 01:06:02;;;;;;;15.70;4.80;;;;;;;3.17;100.00;102336.81;5087451;28;20023;-82
2023/01/27 01:08:30;;;;;;;14.17;5.00;;;;;;;3.15;100.00;102333.41;5093656;28;20031;-82
2023/01/27 01:10:55;;;;;;;17.63;5.00;;;;;;;3.15;100.00;102335.25;5088519;28;20059;-82
2023/01/27 01:13:21;;;;;;;17.40;5.13;;;;;;;3.11;100.00;102333.81;5093064;28;20112;-82
2023/01/27 01:15:47;;;;;;;14.13;4.67;;;;;;;3.10;100.00;102334.78;5093597;28;20028;-82
2023/01/27 01:18:14;;;;;;;12.47;4.67;;;;;;;3.09;100.00;102343.78;5083767;28;20020;-82
2023/01/27 01:20:44;;;;;;;16.07;4.60;;;;;;;3.09;100.00;102343.78;5088804;28;20024;-82
2023/01/27 01:23:11;;;;;;;15.13;5.00;;;;;;;3.09;100.00;102339.28;5090557;28;20570;-82
2023/01/27 01:25:36;;;;;;;16.20;4.90;;;;;;;3.07;100.00;102356.47;5084571;28;20039;-82
2023/01/27 01:28:04;;;;;;;13.17;4.70;;;;;;;3.03;100.00;102348.69;5096086;28;20407;-87
2023/01/27 01:30:30;;;;;;;13.50;4.70;;;;;;;3.04;100.00;102349.53;5092225;28;20015;-86
2023/01/27 01:32:56;;;;;;;11.17;4.67;;;;;;;3.03;100.00;102350.47;5094050;28;20570;-86
2023/01/27 01:35:26;;;;;;;14.23;5.20;;;;;;;3.03;100.00;102351.34;5093370;28;20073;-87
2023/01/27 01:37:52;;;;;;;11.70;5.10;;;;;;;3.03;100.00;102358.53;5093776;28;20050;-87
2023/01/27 01:40:18;;;;;;;14.93;5.30;;;;;;;3.02;100.00;102362.19;5090703;28;20055;-87
2023/01/27 01:42:52;;;;;;;15.20;5.03;;;;;;;3.04;100.00;102366.44;5093575;28;20107;-87
2023/01/27 01:45:30;;;;;;;12.10;4.95;;;;;;;3.03;100.00;102356.72;5095618;28;20475;-86
2023/01/27 01:47:55;;;;;;;13.80;5.07;;;;;;;2.99;100.00;102357.06;5093798;28;20032;-87
2023/01/27 01:50:21;;;;;;;13.17;4.90;;;;;;;3.01;100.00;102363.16;5089071;28;20047;-87
2023/01/27 01:52:47;;;;;;;15.20;5.30;;;;;;;2.97;100.00;102353.69;5088489;28;20028;-82
2023/01/27 01:55:12;;;;;;;16.40;5.53;;;;;;;2.93;100.00;102354.91;5053536;28;20056;-82
2023/01/27 01:57:41;;;;;;;15.30;5.87;;;;;;;2.94;100.00;102356.59;5090979;28;20364;-82
2023/01/27 02:00:08;;;;;;;14.47;5.77;;;;;;;2.94;100.00;102352.09;5088632;28;20066;-82
2023/01/27 02:02:35;;;;;;;15.10;5.53;;;;;;;2.91;100.00;102354.16;5086319;28;20688;-82
2023/01/27 02:05:29;;;;;;;14.93;5.57;;;;;;;2.94;100.00;102351.22;5090286;28;20032;-82
2023/01/27 02:08:01;;;;;;;16.67;5.93;;;;;;;2.85;100.00;102348.31;5086488;28;20050;-86
2023/01/27 02:10:26;;;;;;;14.83;5.27;;;;;;;2.87;100.00;102350.91;5091685;28;20047;-87
2023/01/27 02:12:52;;;;;;;15.93;5.60;;;;;;;2.89;100.00;102356.13;5094488;28;20032;-86
2023/01/27 02:15:18;;;;;;;13.87;6.00;;;;;;;2.90;100.00;102360.50;5091478;28;20032;-87
2023/01/27 02:17:43;;;;;;;11.17;5.57;;;;;;;2.90;100.00;102358.69;5099219;28;20027;-86
2023/01/27 02:20:18;;;;;;;14.27;5.43;;;;;;;2.93;100.00;102360.25;5077221;28;20951;-87
2023/01/27 02:22:54;;;;;;;14.13;5.47;;;;;;;2.92;100.00;102364.75;5096331;28;21376;-87
2023/01/27 02:25:34;;;;;;;14.23;5.83;;;;;;;2.92;100.00;102364.75;5094332;28;20158;-87
2023/01/27 02:28:00;;;;;;;17.83;6.20;;;;;;;2.91;100.00;102368.41;5088351;28;20487;-82
2023/01/27 02:30:26;;;;;;;15.40;6.07;;;;;;;2.90;100.00;102376.56;5075588;28;20020;-82
2023/01/27 02:32:52;;;;;;;14.00;6.03;;;;;;;2.84;100.00;102368.06;5072113;28;20062;-82
2023/01/27 02:35:29;;;;;;;13.53;6.20;;;;;;;2.85;100.00;102374.25;5057128;28;20165;-82
2023/01/27 02:37:56;;;;;;;13.77;6.40;;;;;;;2.84;100.00;102384.13;5091576;28;20030;-82
2023/01/27 02:40:23;;;;;;;12.00;6.90;;;;;;;2.85;100.00;102380.44;5089629;28;20028;-82
2023/01/27 02:42:49;;;;;;;14.57;6.60;;;;;;;2.90;100.00;102384.59;5079909;28;20995;-82
2023/01/27 02:45:14;;;;;;;12.50;6.33;;;;;;;2.84;100.00;102377.91;5090238;28;20034;-82
2023/01/27 02:47:39;;;;;;;17.13;7.17;;;;;;;2.83;100.00;102382.41;5087355;28;20031;-82
2023/01/27 02:50:05;;;;;;;15.60;7.10;;;;;;;2.83;100.00;102382.41;5057408;28;21823;-82
2023/01/27 02:52:30;;;;;;;18.40;7.53;;;;;;;2.84;100.00;102380.56;5092874;28;20438;-82
2023/01/27 02:54:56;;;;;;;16.13;7.70;;;;;;;2.84;100.00;102384.13;5072166;28;20068;-83
2023/01/27 02:57:21;;;;;;;16.13;7.57;;;;;;;2.84;100.00;102381.44;5077954;28;20050;-82
2023/01/27 02:59:46;;;;;;;15.83;7.33;;;;;;;2.86;100.00;102375.97;5089306;28;20032;-82
2023/01/27 03:02:13;;;;;;;15.47;8.07;;;;;;;2.88;100.00;102384.72;5085379;28;20103;-82
2023/01/27 03:04:39;;;;;;;17.23;8.30;;;;;;;2.80;100.00;102377.31;5093210;28;20040;-82
2023/01/27 03:07:04;;;;;;;14.73;7.60;;;;;;;2.82;100.00;102386.06;5090311;28;20058;-82
2023/01/27 03:09:30;;;;;;;15.90;8.63;;;;;;;2.85;100.00;102390.31;5089817;28;20024;-83
2023/01/27 03:20:07;;;;;;;18.83;9.50;;;;;;;2.83;100.00;102390.44;5080714;28;21326;-87
2023/01/27 03:22:33;;;;;;;16.90;9.03;;;;;;;2.84;100.00;102391.28;5059677;28;20024;-87
2023/01/27 03:24:58;;;;;;;18.13;9.30;;;;;;;2.86;100.00;102395.53;5095891;28;20032;-87
2023/01/27 03:27:24;;;;;;;16.20;9.20;;;;;;;2.89;100.00;102402.47;5095438;28;20070;-87
2023/01/27 03:29:55;;;;;;;16.33;9.53;;;;;;;2.85;100.00;102388.47;5097368;28;20032;-87
2023/01/27 03:32:29;;;;;;;17.83;9.77;;;;;;;2.86;100.00;102398.22;5060217;28;20028;-87
2023/01/27 03:34:59;;;;;;;16.98;9.65;;;;;;;2.82;100.00;102391.41;5092110;28;20043;-87
2023/01/27 03:48:22;;;;;;;19.67;11.17;;;;;;;2.82;100.00;102412.81;5097264;28;20415;-87
2023/01/27 03:50:52;;;;;;;19.00;11.20;;;;;;;2.84;100.00;102415.38;5102801;28;20020;-87
2023/01/27 03:53:21;;;;;;;22.97;11.70;;;;;;;2.81;100.00;102421.81;5091936;28;20038;-87
2023/01/27 03:55:46;;;;;;;21.53;11.63;;;;;;;2.87;100.00;102425.88;5086080;28;20040;-86
2023/01/27 03:58:33;;;;;;;23.77;12.13;;;;;;;2.83;100.00;102425.25;5117319;27;20077;-87
2023/01/27 04:01:01;;;;;;;20.67;12.43;;;;;;;2.83;100.00;102429.75;5099926;28;20491;-87
2023/01/27 04:09:01;;;;;;;23.77;13.80;;;;;;;2.80;100.00;102429.97;5112683;27;20120;-87
2023/01/27 04:14:12;;;;;;;24.03;13.93;;;;;;;2.79;100.00;102423.78;5083351;27;20046;-87
2023/01/27 04:16:38;;;;;;;22.60;14.60;;;;;;;2.78;100.00;102422.06;5093334;28;20069;-86
2023/01/27 04:19:06;;;;;;;22.80;14.27;;;;;;;2.75;100.00;102422.34;5109354;27;20474;-87
2023/01/27 04:21:32;;;;;;;22.07;14.37;;;;;;;2.74;100.00;102420.63;5092473;27;20019;-87
2023/01/27 04:23:58;;;;;;;20.97;14.93;;;;;;;2.75;100.00;102413.44;5095833;27;20122;-87
2023/01/27 04:26:24;;;;;;;23.03;14.87;;;;;;;2.75;100.00;102411.63;5094510;27;20103;-86
2023/01/27 04:28:49;;;;;;;21.47;13.77;;;;;;;2.74;100.00;102409.91;5107400;27;20043;-86
2023/01/27 04:31:16;;;;;;;19.63;13.80;;;;;;;2.75;100.00;102416.97;5081214;28;20647;-86
2023/01/27 04:33:44;;;;;;;20.97;14.57;;;;;;;2.74;100.00;102420.63;5118224;27;20035;-86
2023/01/27 04:36:14;;;;;;;22.10;14.93;;;;;;;2.73;100.00;102424.25;5113691;27;20475;-87
2023/01/27 04:38:39;;;;;;;22.77;15.50;;;;;;;2.74;100.00;102425.97;5095990;27;20035;-86
2023/01/27 04:41:05;;;;;;;22.63;15.10;;;;;;;2.74;100.00;102430.50;5078302;27;20042;-86
2023/01/27 04:43:30;;;;;;;20.57;14.67;;;;;;;2.73;100.00;102432.28;5112241;27;20508;-82
2023/01/27 04:45:56;;;;;;;22.23;15.37;;;;;;;2.74;100.00;102431.31;5093184;27;20039;-82
2023/01/27 04:48:21;;;;;;;23.67;15.93;;;;;;;2.74;100.00;102439.34;5056981;28;20051;-82
2023/01/27 04:50:46;;;;;;;21.40;14.50;;;;;;;2.72;100.00;102440.44;5075520;27;20032;-82
2023/01/27 04:53:12;;;;;;;20.77;15.73;;;;;;;2.72;100.00;102432.41;5110693;27;20026;-87
2023/01/27 04:55:37;;;;;;;20.67;15.77;;;;;;;2.70;100.00;102440.56;5111127;27;20536;-86
2023/01/27 04:58:03;;;;;;;22.17;16.47;;;;;;;2.74;100.00;102444.72;5109441;27;20039;-87
2023/01/27 05:00:29;;;;;;;22.27;16.63;;;;;;;2.70;100.00;102437.91;5095783;28;20415;-87
2023/01/27 05:02:54;;;;;;;23.87;17.07;;;;;;;2.70;100.00;102440.56;5078586;27;20047;-86
2023/01/27 05:05:20;;;;;;;21.17;15.70;;;;;;;2.71;100.00;102434.25;5115213;27;20031;-87
2023/01/27 05:07:45;;;;;;;21.57;16.97;;;;;;;2.70;100.00;102440.56;5093165;28;20067;-86
2023/01/27 05:10:10;;;;;;;20.50;16.03;;;;;;;2.69;100.00;102445.09;5120157;27;20062;-87
2023/01/27 05:12:36;;;;;;;19.57;15.33;;;;;;;2.69;100.00;102444.22;5087421;28;20030;-86
2023/01/27 05:15:01;;;;;;;20.67;16.13;;;;;;;2.72;100.00;102446.66;5091850;28;20503;-87
2023/01/27 05:17:30;;;;;;;20.20;15.57;;;;;;;2.70;100.00;102451.28;5110672;27;20023;-86
2023/01/27 05:19:56;;;;;;;20.60;15.80;;;;;;;2.69;100.00;102454.91;5115164;27;20023;-87
2023/01/27 05:22:21;;;;;;;21.57;15.80;;;;;;;2.69;100.00;102450.44;5084330;27;20434;-87
2023/01/27 05:24:47;;;;;;;19.93;15.70;;;;;;;2.69;100.00;102454.91;5101933;28;20143;-86
2023/01/27 05:27:12;;;;;;;19.40;14.40;;;;;;;2.72;100.00;102452.03;5079242;28;20114;-87
2023/01/27 05:29:37;;;;;;;18.53;14.30;;;;;;;2.73;100.00;102456.38;5094132;28;20507;-87
2023/01/27 05:32:03;;;;;;;18.60;14.60;;;;;;;2.76;100.00;102463.31;5084231;28;20083;-86
2023/01/27 05:34:28;;;;;;;19.13;14.87;;;;;;;2.76;100.00;102463.31;5107826;28;20118;-86
2023/01/27 05:36:53;;;;;;;18.30;14.57;;;;;;;2.75;100.00;102462.47;5091496;28;20092;-87
2023/01/27 05:39:19;;;;;;;18.63;14.43;;;;;;;2.76;100.00;102460.66;5099655;28;20868;-87
2023/01/27 05:41:44;;;;;;;17.63;13.10;;;;;;;2.77;100.00;102465.88;5080097;28;20106;-86
2023/01/27 05:44:11;;;;;;;18.40;13.97;;;;;;;2.76;100.00;102472.22;5100661;28;20028;-88
2023/01/27 05:46:38;;;;;;;17.07;13.80;;;;;;;2.76;100.00;102466.88;5094454;28;20031;-88
2023/01/27 05:49:04;;;;;;;16.93;13.50;;;;;;;2.77;100.00;102465.88;5094872;27;20363;-86
2023/01/27 05:51:31;;;;;;;16.90;13.70;;;;;;;2.79;100.00;102466.63;5106613;27;20015;-87
2023/01/27 05:53:57;;;;;;;16.70;13.37;;;;;;;2.79;100.00;102473.78;5097055;27;20023;-88
2023/01/27 05:56:25;;;;;;;17.40;13.37;;;;;;;2.79;100.00;102471.97;5110798;27;20047;-87
2023/01/27 05:58:52;;;;;;;17.77;13.50;;;;;;;2.77;100.00;102479.25;5092233;28;20111;-82
2023/01/27 06:01:20;;;;;;;16.70;13.33;;;;;;;2.81;100.00;102486.06;5062755;28;20032;-83
2023/01/27 06:03:46;;;;;;;16.87;13.33;;;;;;;2.81;100.00;102480.72;5108132;27;20019;-82
2023/01/27 06:06:13;;;;;;;16.63;13.30;;;;;;;2.82;100.00;102489.63;5088923;28;20038;-82
2023/01/27 06:08:39;;;;;;;16.87;12.90;;;;;;;2.82;100.00;102479.75;5078655;28;20020;-82
2023/01/27 06:11:06;;;;;;;15.93;12.73;;;;;;;2.81;100.00;102474.53;5086386;28;20032;-82
2023/01/27 06:13:34;;;;;;;15.47;12.83;;;;;;;2.85;100.00;102489.38;5090630;28;20450;-82
2023/01/27 06:16:01;;;;;;;16.63;12.77;;;;;;;2.83;100.00;102486.81;5092464;28;20012;-82
2023/01/27 06:18:26;;;;;;;16.67;13.13;;;;;;;2.85;100.00;102492.06;5092672;28;20402;-83
2023/01/27 06:20:51;;;;;;;16.50;12.77;;;;;;;2.82;100.00;102490.47;5094456;28;20023;-82
2023/01/27 06:23:17;;;;;;;16.37;12.93;;;;;;;2.85;100.00;102494.72;5088417;28;20055;-82
2023/01/27 06:25:46;;;;;;;15.80;12.90;;;;;;;2.90;100.00;102497.03;5091372;28;20024;-83
2023/01/27 06:28:12;;;;;;;16.13;12.63;;;;;;;2.92;100.00;102503.13;5091559;28;20119;-83
2023/01/27 06:30:39;;;;;;;16.40;12.13;;;;;;;2.90;100.00;102507.75;5088975;28;20109;-82
2023/01/27 06:33:05;;;;;;;16.17;11.97;;;;;;;2.92;100.00;102503.13;5096543;28;20172;-87
2023/01/27 06:35:32;;;;;;;14.73;12.37;;;;;;;2.83;100.00;102504.72;5093323;28;20023;-88
2023/01/27 06:37:58;;;;;;;15.40;12.67;;;;;;;2.83;100.00;102494.84;5096102;28;20028;-88
2023/01/27 06:40:24;;;;;;;15.37;11.73;;;;;;;2.87;100.00;102492.78;5105325;28;20401;-88
2023/01/27 06:42:50;;;;;;;15.47;11.67;;;;;;;2.85;100.00;102495.56;5096245;28;20052;-88
2023/01/27 06:45:15;;;;;;;13.57;10.30;;;;;;;2.88;100.00;102491.81;5097743;28;20627;-88
2023/01/27 06:47:41;;;;;;;13.33;10.67;;;;;;;2.91;100.00;102493.38;5098003;28;20514;-82
2023/01/27 06:50:09;;;;;;;12.47;10.13;;;;;;;2.93;100.00;102502.16;5069999;28;20025;-82
2023/01/27 06:52:35;;;;;;;14.10;10.53;;;;;;;2.86;100.00;102496.44;5086466;28;20028;-83
2023/01/27 06:55:00;;;;;;;12.27;10.20;;;;;;;2.90;100.00;102505.06;5089928;28;20043;-83
2023/01/27 06:57:25;;;;;;;13.07;10.37;;;;;;;2.93;100.00;102510.19;5073750;28;20079;-83
2023/01/27 06:59:51;;;;;;;13.77;10.50;;;;;;;2.92;100.00;102497.78;5056708;28;20538;-83
2023/01/27 07:02:16;;;;;;;12.57;9.70;;;;;;;2.93;100.00;102512.88;5074557;28;20078;-82
2023/01/27 07:04:42;;;;;;;11.23;8.83;;;;;;;2.96;100.00;102513.47;5088240;28;20471;-82
2023/01/27 07:07:07;;;;;;;11.77;8.67;;;;;;;2.98;100.00;102513.38;5090352;28;20023;-83
2023/01/27 07:09:32;;;;;;;10.37;8.60;;;;;;;2.92;100.00;102509.31;5083037;28;20036;-87
2023/01/27 07:11:58;;;;;;;11.90;9.00;;;;;;;2.91;100.00;102514.81;5100413;28;20543;-88
2023/01/27 07:14:23;;;;;;;11.30;8.53;;;;;;;2.94;100.00;102511.88;5061939;28;20476;-88
2023/01/27 07:16:48;;;;;;;8.67;7.63;;;;;;;2.96;100.00;102515.31;5095050;28;20039;-88
2023/01/27 07:19:15;;;;;;;9.47;7.77;;;;;;;2.91;100.00;102517.47;5086024;28;20035;-87
2023/01/27 07:21:41;;;;;;;8.47;7.57;;;;;;;2.91;100.00;102507.66;5098146;28;20035;-87
2023/01/27 07:24:06;;;;;;;8.60;7.70;;;;;;;2.93;100.00;102512.88;5087272;28;20032;-88
2023/01/27 07:26:31;;;;;;;8.50;7.60;;;;;;;2.94;100.00;102519.91;5088949;28;20028;-88
2023/01/27 07:28:57;;;;;;;9.77;7.77;;;;;;;2.94;100.00;102517.22;5097075;28;21988;-88
2023/01/27 07:31:22;;;;;;;9.07;7.97;;;;;;;2.97;100.00;102517.03;5100102;28;20032;-88
2023/01/27 07:33:48;;;;;;;10.83;7.97;;;;;;;2.94;100.00;102519.91;5079657;28;20032;-87
2023/01/27 07:36:13;;;;;;;9.80;7.90;;;;;;;2.96;100.00;102528.69;5096332;28;20032;-88
2023/01/27 07:38:39;;;;;;;9.00;7.83;;;;;;;2.93;100.00;102528.94;5074454;28;20035;-89
2023/01/27 07:41:05;;;;;;;9.27;7.77;;;;;;;2.94;100.00;102527.94;5089402;28;21979;-88
2023/01/27 07:43:32;;;;;;;10.10;7.70;;;;;;;2.93;100.00;102534.28;5094890;28;20032;-88
2023/01/27 07:45:57;;;;;;;8.67;7.77;;;;;;;2.94;100.00;102536.84;5077196;28;20028;-88
2023/01/27 07:48:22;;;;;;;9.83;7.37;;;;;;;2.97;100.00;102535.75;5085937;28;20032;-88
2023/01/27 07:50:48;;;;;;;8.93;7.50;;;;;;;2.96;100.00;102542.09;5092701;28;20557;-82
2023/01/27 07:53:14;;;;;;;10.03;7.60;;;;;;;2.93;100.00;102532.47;5089320;28;20051;-82
2023/01/27 07:55:40;;;;;;;8.23;7.40;;;;;;;2.89;100.00;102536.34;5106649;28;20098;-82
2023/01/27 07:58:44;;;;;;;9.67;7.33;;;;;;;2.94;100.00;102541.34;5085463;27;1317271;-82
2023/01/27 08:01:11;;;;;;;11.50;8.43;;;;;;;2.96;100.00;102547.44;5115006;27;20511;-82
2023/01/27 08:03:37;;;;;;;9.50;7.93;;;;;;;2.94;100.00;102555.59;5127184;27;20043;-81
2023/01/27 08:06:07;;;;;;;8.30;7.40;;;;;;;2.96;100.00;102547.44;5131135;27;20478;-87
2023/01/27 08:08:33;;;;;;;8.37;7.27;;;;;;;2.99;100.00;102544.50;5139206;27;20024;-87
2023/01/27 08:11:00;;;;;;;10.60;7.77;;;;;;;3.00;100.00;102544.38;5136489;27;20112;-87
2023/01/27 08:13:26;;;;;;;8.87;7.60;;;;;;;2.97;100.00;102544.63;5128205;27;20482;-87
2023/01/27 08:15:58;;;;;;;8.17;7.37;;;;;;;3.02;100.00;102552.31;5124227;27;20031;-87
2023/01/27 08:18:24;;;;;;;8.93;7.70;;;;;;;3.03;100.00;102548.66;5126008;27;20884;-87
2023/01/27 08:20:51;;;;;;;9.17;7.57;;;;;;;3.02;100.00;102555.00;5137784;27;20080;-88
2023/01/27 08:23:18;;;;;;;9.27;7.60;;;;;;;3.05;100.00;102554.75;5131004;27;20015;-87
2023/01/27 08:25:51;;;;;;;8.73;7.47;;;;;;;3.04;100.00;102553.03;5128906;27;20066;-88
2023/01/27 08:28:17;;;;;;;10.30;7.67;;;;;;;3.08;100.00;102559.03;5131580;27;20038;-87
2023/01/27 08:30:43;;;;;;;8.67;6.87;;;;;;;3.05;100.00;102557.44;5107585;27;20031;-87
2023/01/27 08:33:08;;;;;;;7.87;6.80;;;;;;;3.11;100.00;102564.13;5133933;27;20543;-87
2023/01/27 08:35:34;;;;;;;9.33;7.50;;;;;;;3.13;100.00;102559.50;5127718;27;20030;-87
2023/01/27 08:37:59;;;;;;;7.63;6.80;;;;;;;3.12;100.00;102563.16;5128223;27;20490;-87
2023/01/27 08:40:25;;;;;;;8.13;7.33;;;;;;;3.15;100.00;102557.56;5131354;27;20073;-87
2023/01/27 08:42:50;;;;;;;8.43;6.80;;;;;;;3.15;100.00;102557.56;5136907;27;20023;-87
2023/01/27 08:45:16;;;;;;;8.10;6.50;;;;;;;3.16;100.00;102565.47;5113980;27;20070;-82
2023/01/27 08:47:41;;;;;;;7.10;6.40;;;;;;;3.19;100.00;102578.63;5119214;27;20560;-82
2023/01/27 08:50:08;;;;;;;7.73;6.70;;;;;;;3.17;100.00;102575.22;5129609;27;20323;-82
2023/01/27 08:52:33;;;;;;;7.50;6.43;;;;;;;3.18;100.00;102584.97;5123734;27;20038;-87
2023/01/27 08:54:58;;;;;;;8.70;6.50;;;;;;;3.19;100.00;102581.28;5115994;27;20024;-87
2023/01/27 08:57:24;;;;;;;7.70;6.00;;;;;;;3.20;100.00;102590.19;5107598;28;20390;-87
2023/01/27 08:59:49;;;;;;;6.60;6.00;;;;;;;3.20;100.00;102596.41;5104762;28;20033;-88
2023/01/27 09:02:15;;;;;;;6.63;5.83;;;;;;;3.18;100.00;102590.31;5123594;28;20019;-87
2023/01/27 09:04:43;;;;;;;7.57;5.77;;;;;;;3.22;100.00;102607.00;5114190;28;20084;-87
2023/01/27 09:07:08;;;;;;;6.80;6.07;;;;;;;3.20;100.00;102601.75;5125419;28;20028;-86
2023/01/27 09:09:34;;;;;;;6.57;5.93;;;;;;;3.25;100.00;102600.53;5097404;28;20031;-87
2023/01/27 09:11:59;;;;;;;8.23;6.03;;;;;;;3.27;100.00;102590.56;5099239;28;20065;-88
2023/01/27 09:14:25;;;;;;;6.53;5.93;;;;;;;3.34;100.00;102594.47;5077467;28;20028;-86
2023/01/27 09:16:50;;;;;;;6.10;5.50;;;;;;;3.35;100.00;102598.84;5110164;28;20452;-87
2023/01/27 09:19:16;;;;;;;7.17;5.53;;;;;;;3.38;100.00;102594.09;5111874;28;20027;-88
2023/01/27 09:21:41;;;;;;;6.93;5.97;;;;;;;3.42;100.00;102592.03;5113336;28;20032;-88
2023/01/27 09:24:06;;;;;;;6.57;5.93;;;;;;;3.49;100.00;102598.59;5098647;28;20020;-86
2023/01/27 09:26:32;;;;;;;5.97;5.37;;;;;;;3.52;100.00;102608.22;5105732;28;20093;-87
2023/01/27 09:28:57;;;;;;;6.03;5.43;;;;;;;3.56;100.00;102604.31;5094743;28;20019;-88
2023/01/27 09:31:23;;;;;;;5.50;5.00;;;;;;;3.58;100.00;102614.91;5075630;28;21022;-86
2023/01/27 09:33:48;;;;;;;5.70;5.00;;;;;;;3.61;100.00;102612.88;5109887;28;20027;-87
2023/01/27 09:36:17;;;;;;;6.20;5.60;;;;;;;3.60;100.00;102621.88;5109135;28;20020;-87
2023/01/27 09:39:00;;;;;;;5.50;5.00;;;;;;;3.59;100.00;102613.94;5110310;28;20524;-87
2023/01/27 09:41:59;;;;;;;5.80;5.20;;;;;;;3.62;100.00;102619.06;5113595;28;20478;-87
2023/01/27 09:44:28;;;;;;;5.83;5.30;;;;;;;3.56;100.00;102625.78;5090169;28;20032;-87
2023/01/27 09:47:05;;;;;;;5.87;5.27;;;;;;;3.52;100.00;102627.88;5109789;28;20107;-87
2023/01/27 09:49:48;;;;;;;5.70;5.20;;;;;;;3.51;100.00;102628.81;5110619;28;20059;-86
2023/01/27 09:52:35;;;;;;;6.27;5.40;;;;;;;3.48;100.00;102634.44;5105484;28;20028;-81
2023/01/27 09:55:35;;;;;;;6.43;5.77;;;;;;;3.55;100.00;102627.59;5095751;28;20039;-81
2023/01/27 09:58:19;;;;;;;5.80;5.30;;;;;;;3.51;100.00;102628.81;5100852;28;20131;-81
2023/01/27 10:01:17;;;;;;;6.23;5.63;;;;;;;3.61;100.00;102634.31;5098043;28;20031;-82
2023/01/27 10:03:51;;;;;;;6.37;5.77;;;;;;;3.60;100.00;102631.75;5045853;28;20032;-81
2023/01/27 10:06:38;;;;;;;6.18;5.03;;;;;;;3.67;100.00;102641.00;5098822;28;20043;-81
2023/01/27 10:09:38;;;;;;;5.53;5.03;;;;;;;3.68;100.00;102638.19;5101889;28;20031;-82
2023/01/27 10:12:11;;;;;;;6.27;5.67;;;;;;;3.64;100.00;102627.84;5101544;28;20059;-81
2023/01/27 10:14:55;;;;;;;6.27;5.57;;;;;;;3.78;100.00;102634.78;5122998;27;21749;-82
2023/01/27 10:17:34;;;;;;;6.72;5.45;;;;;;;3.91;100.00;102622.09;5097806;28;20131;-82
2023/01/27 10:20:00;;;;;;;6.10;5.50;;;;;;;3.98;100.00;102625.13;5099733;28;20029;-88
2023/01/27 10:22:49;;;;;;;6.20;5.60;;;;;;;4.13;100.00;102623.03;5107300;28;20106;-81
2023/01/27 10:25:50;;;;;;;5.97;5.47;;;;;;;4.00;100.00;102617.84;5098197;28;20108;-81
2023/01/27 10:28:23;;;;;;;6.20;5.60;;;;;;;4.05;100.00;102626.34;5097917;28;20111;-81
2023/01/27 10:30:58;;;;;;;6.10;5.60;;;;;;;4.10;100.00;102618.78;5097114;28;20055;-81
2023/01/27 10:33:29;;;;;;;6.10;5.50;;;;;;;4.12;100.00;102627.56;5095799;28;20035;-82
2023/01/27 10:36:03;;;;;;;5.90;5.33;;;;;;;4.16;100.00;102622.78;5104337;28;20028;-87
2023/01/27 10:38:44;;;;;;;5.70;5.10;;;;;;;4.22;100.00;102628.50;5111058;28;20092;-87
2023/01/27 10:42:07;;;;;;;5.83;5.23;;;;;;;4.29;100.00;102628.00;5101937;28;20027;-87
2023/01/27 10:44:56;;;;;;;5.70;5.20;;;;;;;4.22;100.00;102617.75;5068910;28;20036;-87
2023/01/27 10:47:58;;;;;;;5.97;5.37;;;;;;;4.31;100.00;102621.53;5068252;28;20055;-87
2023/01/27 10:50:29;;;;;;;5.50;5.00;;;;;;;4.19;100.00;102627.91;5100806;28;20043;-87
2023/01/27 10:53:13;;;;;;;6.23;5.27;;;;;;;4.14;100.00;102620.22;5108616;28;20058;-87
2023/01/27 10:56:03;;;;;;;6.43;5.07;;;;;;;4.20;100.00;102618.88;5099848;28;20051;-87
2023/01/27 10:58:46;;;;;;;5.67;5.17;;;;;;;4.03;100.00;102618.41;5109737;28;20051;-87
2023/01/27 11:01:15;;;;;;;5.73;5.20;;;;;;;4.04;100.00;102621.97;5110830;28;20367;-87
2023/01/27 11:03:50;;;;;;;6.50;5.37;;;;;;;3.98;100.00;102623.28;5098306;28;20024;-87
2023/01/27 11:06:23;;;;;;;6.00;5.20;;;;;;;3.95;100.00;102625.41;5105521;28;20471;-88
2023/01/27 11:08:54;;;;;;;5.80;5.30;;;;;;;3.89;100.00;102626.75;5101571;28;20034;-91
2023/01/27 11:14:16;;;;;;;6.13;5.53;;;;;;;3.87;100.00;102624.16;5101803;28;20050;-87
2023/01/27 11:16:46;;;;;;;6.30;5.40;;;;;;;3.88;100.00;102623.19;5107915;28;20055;-87
2023/01/27 11:19:27;;;;;;;5.83;5.23;;;;;;;3.78;100.00;102613.34;5102939;28;20028;-88
2023/01/27 11:21:54;;;;;;;5.87;5.30;;;;;;;3.81;100.00;102613.94;5109486;28;20036;-87
2023/01/27 11:24:31;;;;;;;6.37;5.70;;;;;;;3.88;100.00;102609.78;5102949;28;20421;-88
2023/01/27 11:27:12;;;;;;;6.13;5.53;;;;;;;3.95;100.00;102612.00;5102272;28;20111;-87
2023/01/27 11:29:53;;;;;;;6.60;5.83;;;;;;;3.96;100.00;102605.66;5110853;28;20042;-87
2023/01/27 11:32:37;;;;;;;8.43;6.40;;;;;;;4.01;100.00;102609.66;5104586;28;20020;-87
2023/01/27 11:35:04;;;;;;;6.53;5.93;;;;;;;4.03;100.00;102618.41;5106811;28;20028;-87
2023/01/27 11:37:34;;;;;;;13.83;10.20;;;;;;;4.13;100.00;102604.25;5112548;28;20055;-88
2023/01/27 11:40:01;;;;;;;7.27;6.60;;;;;;;4.17;100.00;102613.75;5096837;28;20028;-81
2023/01/27 11:42:30;;;;;;;7.97;7.27;;;;;;;4.15;100.00;102610.38;5096219;28;20160;-81
2023/01/27 11:44:57;;;;;;;9.03;6.43;;;;;;;4.18;100.00;102605.56;5097152;28;20028;-81
2023/01/27 11:47:26;;;;;;;7.27;6.57;;;;;;;4.23;100.00;102603.38;5078570;28;20092;-81
2023/01/27 11:49:53;;;;;;;7.40;6.70;;;;;;;4.19;100.00;102609.13;5095011;28;20499;-81
2023/01/27 11:52:21;;;;;;;7.20;6.27;;;;;;;4.25;100.00;102592.50;5096171;28;20074;-81
2023/01/27 11:55:15;;;;;;;6.80;6.20;;;;;;;4.31;100.00;102601.88;5097862;28;20040;-81
2023/01/27 11:57:44;;;;;;;6.80;6.10;;;;;;;4.14;100.00;102604.13;5097397;28;20047;-81
2023/01/27 12:00:20;;;;;;;6.50;5.90;;;;;;;4.25;100.00;102603.25;5097481;28;20375;-81
2023/01/27 12:03:03;;;;;;;7.37;6.30;;;;;;;4.20;100.00;102606.31;5098055;28;20031;-81
2023/01/27 12:05:36;;;;;;;6.97;6.13;;;;;;;4.18;100.00;102602.91;5096401;28;20138;-81
2023/01/27 12:08:04;;;;;;;6.70;6.03;;;;;;;4.19;100.00;102607.28;5097036;28;20114;-81